createdAt,value
2024-01-12T00:00:47.986Z,99068.75
2024-01-12T00:03:16.398Z,99070.00
2024-01-12T00:05:46.992Z,99077.70
2024-01-12T00:08:15.150Z,99078.73
2024-01-12T00:10:43.856Z,99076.56
2024-01-12T00:13:12.815Z,99083.04
2024-01-12T00:15:41.697Z,99077.77
2024-01-12T00:18:10.638Z,99086.15
2024-01-12T00:20:44.558Z,99088.58
2024-01-12T00:23:13.765Z,99094.39
2024-01-12T00:25:42.038Z,99098.52
2024-01-12T00:28:12.346Z,99100.05
2024-01-12T00:30:41.997Z,99103.59
2024-01-12T00:33:10.186Z,99103.33
2024-01-12T00:35:38.253Z,99102.52
2024-01-12T00:38:07.129Z,99103.55
2024-01-12T00:40:35.173Z,99103.85
2024-01-12T00:43:04.986Z,99102.85
2024-01-12T00:45:32.921Z,99104.66
2024-01-12T00:48:01.251Z,99103.77
2024-01-12T00:50:29.685Z,99100.27
2024-01-12T00:52:58.509Z,99091.40
2024-01-12T00:55:26.792Z,99085.42
2024-01-12T00:57:55.715Z,99074.81
2024-01-12T01:00:24.552Z,99074.85
2024-01-12T01:02:55.521Z,99068.39
2024-01-12T01:05:24.706Z,99059.40
2024-01-12T01:07:52.714Z,99052.30
2024-01-12T01:10:21.119Z,99045.48
2024-01-12T01:12:49.048Z,99042.39
2024-01-12T01:15:18.072Z,99035.25
2024-01-12T01:17:46.146Z,99032.73
2024-01-12T01:20:17.218Z,99033.31
2024-01-12T01:22:46.171Z,99031.55
2024-01-12T01:25:14.752Z,99034.27
2024-01-12T01:27:43.521Z,99034.65
2024-01-12T01:30:12.318Z,99036.14
2024-01-12T01:32:40.531Z,99030.34
2024-01-12T01:35:09.142Z,99036.80
2024-01-12T01:37:37.248Z,99036.45
2024-01-12T01:40:10.945Z,99040.39
2024-01-12T01:42:40.043Z,99049.16
2024-01-12T01:45:08.471Z,99047.59
2024-01-12T01:47:37.521Z,99053.27
2024-01-12T01:50:07.207Z,99055.58
2024-01-12T01:52:36.773Z,99061.17
2024-01-12T01:55:07.214Z,99064.27
2024-01-12T01:57:35.941Z,99065.69
2024-01-12T02:00:04.763Z,99074.88
2024-01-12T02:02:40.846Z,99086.11
2024-01-12T02:05:10.266Z,99090.52
2024-01-12T02:07:39.278Z,99100.98
2024-01-12T02:10:08.060Z,99108.19
2024-01-12T02:12:36.920Z,99114.84
2024-01-12T02:15:10.284Z,99119.48
2024-01-12T02:17:38.579Z,99126.67
2024-01-12T02:20:07.639Z,99138.66
2024-01-12T02:22:35.483Z,99151.98
2024-01-12T02:25:03.858Z,99161.57
2024-01-12T02:27:32.754Z,99174.66
2024-01-12T02:30:01.785Z,99179.27
2024-01-12T02:32:29.782Z,99194.58
2024-01-12T02:34:58.181Z,99199.73
2024-01-12T02:37:26.249Z,99206.20
2024-01-12T02:39:55.059Z,99210.92
2024-01-12T02:42:23.230Z,99226.88
2024-01-12T02:44:51.911Z,99242.33
2024-01-12T02:47:20.972Z,99248.66
2024-01-12T02:49:49.953Z,99259.14
2024-01-12T02:52:18.937Z,99271.04
2024-01-12T02:54:47.786Z,99277.09
2024-01-12T02:57:17.118Z,99283.34
2024-01-12T02:59:45.354Z,99296.09
2024-01-12T03:02:13.491Z,99303.55
2024-01-12T03:04:41.685Z,99313.75
2024-01-12T03:07:10.972Z,99320.02
2024-01-12T03:09:40.109Z,99326.57
2024-01-12T03:12:08.413Z,99341.55
2024-01-12T03:14:36.382Z,99353.02
2024-01-12T03:17:05.133Z,99362.77
2024-01-12T03:19:35.212Z,99379.15
2024-01-12T03:22:03.300Z,99397.49
2024-01-12T03:24:31.228Z,99410.85
2024-01-12T03:26:59.347Z,99419.70
2024-01-12T03:29:28.286Z,99427.30
2024-01-12T03:31:56.258Z,99433.84
2024-01-12T03:34:24.489Z,99448.90
2024-01-12T03:36:52.390Z,99455.02
2024-01-12T03:39:20.501Z,99476.61
2024-01-12T03:41:48.457Z,99490.80
2024-01-12T03:44:16.479Z,99497.13
2024-01-12T03:46:44.639Z,99500.71
2024-01-12T03:49:13.347Z,99503.70
2024-01-12T03:51:45.304Z,99506.98
2024-01-12T03:54:13.472Z,99511.65
2024-01-12T03:56:42.326Z,99516.75
2024-01-12T03:59:12.724Z,99515.63
2024-01-12T04:01:47.249Z,99515.77
2024-01-12T04:04:16.316Z,99530.41
2024-01-12T04:06:44.643Z,99536.60
2024-01-12T04:09:16.631Z,99544.55
2024-01-12T04:11:45.446Z,99557.65
2024-01-12T04:14:14.460Z,99574.89
2024-01-12T04:16:42.540Z,99579.23
2024-01-12T04:19:13.136Z,99596.05
2024-01-12T04:21:41.426Z,99603.73
2024-01-12T04:24:09.701Z,99620.69
2024-01-12T04:26:38.825Z,99636.22
2024-01-12T04:29:06.808Z,99658.86
2024-01-12T04:31:35.251Z,99667.42
2024-01-12T04:34:03.471Z,99677.31
2024-01-12T04:36:32.408Z,99683.98
2024-01-12T04:39:00.712Z,99699.48
2024-01-12T04:41:28.969Z,99713.49
2024-01-12T04:43:57.188Z,99728.41
2024-01-12T04:46:25.266Z,99738.48
2024-01-12T04:48:55.767Z,99753.56
2024-01-12T04:51:24.826Z,99765.88
2024-01-12T04:53:53.147Z,99776.54
2024-01-12T04:56:21.183Z,99788.65
2024-01-12T04:58:49.335Z,99802.86
2024-01-12T05:01:17.515Z,99809.70
2024-01-12T05:03:45.516Z,99826.44
2024-01-12T05:06:13.632Z,99840.92
2024-01-12T05:08:42.200Z,99851.73
2024-01-12T05:11:12.082Z,99861.80
2024-01-12T05:13:39.993Z,99867.35
2024-01-12T05:16:09.115Z,99870.85
2024-01-12T05:18:38.800Z,99879.28
2024-01-12T05:21:07.668Z,99885.55
2024-01-12T05:23:36.162Z,99892.30
2024-01-12T05:26:04.499Z,99898.70
2024-01-12T05:28:32.802Z,99902.57
2024-01-12T05:31:01.076Z,99908.13
2024-01-12T05:33:29.535Z,99914.16
2024-01-12T05:35:57.869Z,99920.52
2024-01-12T05:38:25.992Z,99917.39
2024-01-12T05:40:54.171Z,99924.13
2024-01-12T05:43:22.358Z,99924.65
2024-01-12T05:45:50.477Z,99923.41
2024-01-12T05:48:18.873Z,99929.49
2024-01-12T05:50:47.232Z,99925.05
2024-01-12T05:53:15.491Z,99926.23
2024-01-12T05:55:43.662Z,99928.41
2024-01-12T05:58:12.518Z,99925.48
2024-01-12T06:00:41.547Z,99929.75
2024-01-12T06:03:09.857Z,99925.12
2024-01-12T06:05:38.011Z,99922.52
2024-01-12T06:08:06.857Z,99921.02
2024-01-12T06:10:34.875Z,99919.42
2024-01-12T06:13:03.565Z,99918.56
2024-01-12T06:15:31.593Z,99917.54
2024-01-12T06:18:01.219Z,99920.66
2024-01-12T06:20:29.580Z,99920.95
2024-01-12T06:22:58.414Z,99921.43
2024-01-12T06:25:31.210Z,99926.55
2024-01-12T06:27:59.625Z,99919.00
2024-01-12T06:30:28.331Z,99914.37
2024-01-12T06:32:56.675Z,99912.63
2024-01-12T06:35:27.128Z,99913.27
2024-01-12T06:37:56.336Z,99909.70
2024-01-12T06:40:24.552Z,99920.60
2024-01-12T06:42:54.433Z,99912.70
2024-01-12T06:45:23.212Z,99913.90
2024-01-12T06:47:53.024Z,99917.64
2024-01-12T06:50:21.286Z,99918.10
2024-01-12T06:52:50.508Z,99921.58
2024-01-12T06:55:19.380Z,99923.64
2024-01-12T06:57:48.369Z,99930.02
2024-01-12T07:00:17.508Z,99930.10
2024-01-12T07:02:46.922Z,99931.34
2024-01-12T07:05:15.914Z,99933.76
2024-01-12T07:07:45.160Z,99927.60
2024-01-12T07:10:15.810Z,99932.02
2024-01-12T07:12:44.053Z,99930.46
2024-01-12T07:15:12.352Z,99927.94
2024-01-12T07:17:41.062Z,99934.80
2024-01-12T07:20:11.659Z,99933.13
2024-01-12T07:22:40.450Z,99935.36
2024-01-12T07:25:09.357Z,99937.53
2024-01-12T07:27:41.373Z,99941.27
2024-01-12T07:30:11.292Z,99946.39
2024-01-12T07:32:39.471Z,99942.52
2024-01-12T07:35:07.977Z,99947.39
2024-01-12T07:37:38.715Z,99937.71
2024-01-12T07:40:08.646Z,99937.40
2024-01-12T07:42:39.532Z,99934.41
2024-01-12T07:45:07.883Z,99942.10
2024-01-12T07:47:37.335Z,99945.95
2024-01-12T07:50:08.127Z,99959.30
2024-01-12T07:52:37.019Z,99961.90
2024-01-12T07:55:07.198Z,99969.52
2024-01-12T07:57:37.588Z,99975.86
2024-01-12T08:00:06.945Z,99976.02
2024-01-12T08:02:40.364Z,99980.98
2024-01-12T08:05:12.184Z,99981.35
2024-01-12T08:07:41.080Z,99980.80
2024-01-12T08:10:10.492Z,99991.66
2024-01-12T08:12:38.869Z,99999.69
2024-01-12T08:15:09.754Z,100011.48
2024-01-12T08:17:41.939Z,100017.66
2024-01-12T08:20:12.436Z,100016.44
2024-01-12T08:22:41.619Z,100014.55
2024-01-12T08:25:09.754Z,100020.98
2024-01-12T08:27:37.879Z,100023.21
2024-01-12T08:30:09.647Z,100020.40
2024-01-12T08:32:39.313Z,100020.14
2024-01-12T08:35:09.740Z,100025.19
2024-01-12T08:37:38.556Z,100021.22
2024-01-12T08:40:10.570Z,100017.27
2024-01-12T08:42:40.876Z,100031.64
2024-01-12T08:45:11.204Z,100036.75
2024-01-12T08:47:41.258Z,100043.48
2024-01-12T08:50:10.063Z,100049.02
2024-01-12T08:52:38.023Z,100056.50
2024-01-12T08:55:09.414Z,100068.69
2024-01-12T08:57:38.516Z,100073.82
2024-01-12T09:00:08.345Z,100073.15
2024-01-12T09:02:36.625Z,100075.73
2024-01-12T09:05:10.377Z,100079.80
2024-01-12T09:07:39.650Z,100081.67
2024-01-12T09:10:09.173Z,100089.38
2024-01-12T09:12:38.126Z,100098.23
2024-01-12T09:15:09.817Z,100116.23
2024-01-12T09:17:39.112Z,100118.58
2024-01-12T09:20:09.154Z,100120.45
2024-01-12T09:22:38.025Z,100119.23
2024-01-12T09:25:06.767Z,100129.27
2024-01-12T09:27:35.345Z,100119.23
2024-01-12T09:30:04.417Z,100135.06
2024-01-12T09:32:35.545Z,100148.94
2024-01-12T09:35:10.654Z,100171.04
2024-01-12T09:37:43.762Z,100184.96
2024-01-12T09:40:13.890Z,100184.23
2024-01-12T09:42:43.770Z,100184.61
2024-01-12T09:45:20.172Z,100180.27
2024-01-12T09:47:51.812Z,100191.00
2024-01-12T09:50:23.930Z,100196.52
2024-01-12T09:52:53.697Z,100211.30
2024-01-12T09:55:22.870Z,100213.89
2024-01-12T09:57:51.786Z,100213.46
2024-01-12T10:00:19.897Z,100213.19
2024-01-12T10:02:48.732Z,100211.90
2024-01-12T10:05:21.899Z,100212.31
2024-01-12T10:07:50.662Z,100219.64
2024-01-12T10:10:19.137Z,100229.16
2024-01-12T10:12:51.206Z,100244.52
2024-01-12T10:15:22.158Z,100263.59
2024-01-12T10:17:51.633Z,100283.08
2024-01-12T10:20:22.572Z,100298.02
2024-01-12T10:22:58.213Z,100316.52
2024-01-12T10:25:26.546Z,100324.71
2024-01-12T10:28:00.295Z,100328.17
2024-01-12T10:30:40.120Z,100323.95
2024-01-12T10:33:08.964Z,100329.48
2024-01-12T10:35:37.502Z,100333.89
2024-01-12T10:38:07.342Z,100333.25
2024-01-12T10:40:35.804Z,100328.89
2024-01-12T10:43:06.102Z,100323.20
2024-01-12T10:45:37.326Z,100325.28
2024-01-12T10:48:07.140Z,100315.88
2024-01-12T10:50:39.432Z,100294.23
2024-01-12T10:53:21.377Z,100290.60
2024-01-12T10:55:55.262Z,100301.86
2024-01-12T10:58:26.512Z,100303.96
2024-01-12T11:00:55.009Z,100299.80
2024-01-12T11:03:26.129Z,100315.84
2024-01-12T11:05:55.518Z,100343.74
2024-01-12T11:08:24.311Z,100359.92
2024-01-12T11:10:56.019Z,100372.43
2024-01-12T11:13:25.217Z,100364.49
2024-01-12T11:15:55.852Z,100359.39
2024-01-12T11:18:26.684Z,100362.42
2024-01-12T11:21:03.667Z,100362.40
2024-01-12T11:23:41.999Z,100370.49
2024-01-12T11:26:11.609Z,100379.75
2024-01-12T11:28:40.569Z,100385.98
2024-01-12T11:31:08.815Z,100394.55
2024-01-12T11:33:43.294Z,100392.88
2024-01-12T11:36:16.099Z,100389.24
2024-01-12T11:38:46.296Z,100369.73
2024-01-12T11:41:14.738Z,100325.48
2024-01-12T11:43:48.933Z,100303.44
2024-01-12T11:46:17.049Z,100320.38
2024-01-12T11:48:46.407Z,100350.23
2024-01-12T11:51:28.768Z,100364.33
2024-01-12T11:54:00.321Z,100382.98
2024-01-12T11:56:29.194Z,100387.80
2024-01-12T11:58:57.543Z,100383.92
2024-01-12T12:01:26.295Z,100392.59
2024-01-12T12:03:54.699Z,100398.42
2024-01-12T12:06:23.175Z,100401.23
2024-01-12T12:08:54.683Z,100404.02
2024-01-12T12:11:22.909Z,100407.04
2024-01-12T12:13:54.928Z,100401.12
2024-01-12T12:16:23.129Z,100402.89
2024-01-12T12:18:51.547Z,100399.24
2024-01-12T12:21:20.661Z,100407.59
2024-01-12T12:23:49.761Z,100417.07
2024-01-12T12:26:18.954Z,100426.58
2024-01-12T12:28:49.078Z,100435.86
2024-01-12T12:31:18.083Z,100436.20
2024-01-12T12:33:46.698Z,100429.36
2024-01-12T12:36:17.249Z,100434.95
2024-01-12T12:38:46.166Z,100432.02
2024-01-12T12:41:14.249Z,100432.41
2024-01-12T12:43:50.339Z,100442.48
2024-01-12T12:46:46.093Z,100449.34
2024-01-12T12:49:19.980Z,100455.30
2024-01-12T12:51:48.225Z,100463.12
2024-01-12T12:54:17.065Z,100457.51
2024-01-12T12:56:47.805Z,100453.00
2024-01-12T12:59:16.297Z,100459.55
2024-01-12T13:01:44.513Z,100463.09
2024-01-12T13:04:14.102Z,100457.73
2024-01-12T13:06:44.205Z,100455.98
2024-01-12T13:09:12.818Z,100451.58
2024-01-12T13:11:41.085Z,100455.58
2024-01-12T13:14:09.357Z,100458.42
2024-01-12T13:16:38.147Z,100465.99
2024-01-12T13:19:14.676Z,100470.89
2024-01-12T13:21:52.216Z,100482.84
2024-01-12T13:24:20.457Z,100485.18
2024-01-12T13:26:49.564Z,100484.05
2024-01-12T13:29:18.152Z,100483.24
2024-01-12T13:31:47.419Z,100478.73
2024-01-12T13:34:17.504Z,100485.25
2024-01-12T13:36:45.952Z,100495.91
2024-01-12T13:39:14.172Z,100500.11
2024-01-12T13:41:44.332Z,100500.80
2024-01-12T13:44:12.719Z,100506.60
2024-01-12T13:46:41.212Z,100504.09
2024-01-12T13:49:10.540Z,100502.88
2024-01-12T13:51:38.710Z,100504.25
2024-01-12T13:54:07.769Z,100503.87
2024-01-12T13:56:36.974Z,100502.23
2024-01-12T13:59:05.668Z,100496.73
2024-01-12T14:01:35.707Z,100502.80
2024-01-12T14:04:04.851Z,100502.38
2024-01-12T14:06:35.886Z,100508.60
2024-01-12T14:09:06.635Z,100512.46
2024-01-12T14:11:35.271Z,100515.73
2024-01-12T14:14:03.209Z,100514.23
2024-01-12T14:16:31.674Z,100509.45
2024-01-12T14:19:02.243Z,100507.43
2024-01-12T14:21:32.682Z,100503.13
2024-01-12T14:24:01.038Z,100502.14
2024-01-12T14:26:30.262Z,100493.59
2024-01-12T14:28:59.169Z,100489.75
2024-01-12T14:31:27.523Z,100486.34
2024-01-12T14:33:57.446Z,100484.80
2024-01-12T14:36:25.734Z,100475.75
2024-01-12T14:38:54.851Z,100474.38
2024-01-12T14:41:23.268Z,100474.39
2024-01-12T14:43:51.420Z,100466.83
2024-01-12T14:46:20.800Z,100466.77
2024-01-12T14:48:50.112Z,100468.99
2024-01-12T14:51:20.254Z,100468.25
2024-01-12T14:53:50.003Z,100464.86
2024-01-12T14:56:19.790Z,100461.48
2024-01-12T14:58:48.860Z,100464.20
2024-01-12T15:01:17.375Z,100461.80
2024-01-12T15:03:45.562Z,100461.39
2024-01-12T15:06:13.808Z,100464.17
2024-01-12T15:08:42.107Z,100464.98
2024-01-12T15:11:11.147Z,100458.48
2024-01-12T15:13:40.938Z,100459.55
2024-01-12T15:16:09.514Z,100453.19
2024-01-12T15:18:40.570Z,100455.33
2024-01-12T15:21:09.611Z,100452.44
2024-01-12T15:23:37.857Z,100451.73
2024-01-12T15:26:10.492Z,100448.77
2024-01-12T15:28:39.487Z,100447.23
2024-01-12T15:31:07.768Z,100445.95
2024-01-12T15:33:38.486Z,100444.14
2024-01-12T15:36:09.895Z,100444.65
2024-01-12T15:38:38.193Z,100447.27
2024-01-12T15:41:08.565Z,100444.46
2024-01-12T15:43:36.609Z,100443.49
2024-01-12T15:46:05.658Z,100441.10
2024-01-12T15:48:36.762Z,100433.04
2024-01-12T15:51:08.357Z,100429.52
2024-01-12T15:53:36.626Z,100429.00
2024-01-12T15:56:07.054Z,100430.91
2024-01-12T15:58:36.232Z,100428.89
2024-01-12T16:01:05.605Z,100428.35
2024-01-12T16:03:35.245Z,100424.06
2024-01-12T16:06:08.928Z,100430.52
2024-01-12T16:08:37.616Z,100430.61
2024-01-12T16:11:06.661Z,100429.67
2024-01-12T16:13:37.216Z,100435.69
2024-01-12T16:16:07.393Z,100439.45
2024-01-12T16:18:35.670Z,100441.95
2024-01-12T16:21:04.209Z,100439.55
2024-01-12T16:23:33.231Z,100441.25
2024-01-12T16:26:01.628Z,100450.48
2024-01-12T16:28:30.803Z,100449.65
2024-01-12T16:30:59.057Z,100458.63
2024-01-12T16:33:29.303Z,100455.77
2024-01-12T16:35:58.513Z,100454.73
2024-01-12T16:38:26.821Z,100453.70
2024-01-12T16:40:55.277Z,100452.25
2024-01-12T16:43:24.363Z,100444.09
2024-01-12T16:45:52.686Z,100438.38
2024-01-12T16:48:21.064Z,100432.55
2024-01-12T16:50:50.659Z,100429.67
2024-01-12T16:53:22.279Z,100431.59
2024-01-12T16:55:51.458Z,100429.02
2024-01-12T16:58:19.734Z,100428.64
2024-01-12T17:00:48.659Z,100429.27
2024-01-12T17:03:17.322Z,100424.15
2024-01-12T17:05:45.829Z,100425.15
2024-01-12T17:08:16.561Z,100425.41
2024-01-12T17:10:44.838Z,100422.14
2024-01-12T17:13:13.210Z,100426.55
2024-01-12T17:15:42.128Z,100421.25
2024-01-12T17:18:18.951Z,100423.02
2024-01-12T17:20:50.921Z,100426.02
2024-01-12T17:23:19.056Z,100432.05
2024-01-12T17:25:47.139Z,100426.08
2024-01-12T17:28:15.413Z,100420.80
2024-01-12T17:30:44.853Z,100424.52
2024-01-12T17:33:13.547Z,100427.91
2024-01-12T17:35:41.940Z,100431.93
2024-01-12T17:38:10.303Z,100436.23
2024-01-12T17:40:38.736Z,100438.48
2024-01-12T17:43:07.300Z,100441.67
2024-01-12T17:45:38.664Z,100440.65
2024-01-12T17:48:07.660Z,100438.29
2024-01-12T17:50:35.981Z,100436.13
2024-01-12T17:53:04.634Z,100432.00
2024-01-12T17:55:33.082Z,100434.26
2024-01-12T17:58:01.216Z,100428.14
2024-01-12T18:00:29.284Z,100428.36
2024-01-12T18:02:58.404Z,100424.12
2024-01-12T18:05:27.512Z,100430.85
2024-01-12T18:07:56.387Z,100431.78
2024-01-12T18:10:24.642Z,100432.46
2024-01-12T18:12:52.814Z,100435.92
2024-01-12T18:15:21.076Z,100434.52
2024-01-12T18:17:49.665Z,100432.16
2024-01-12T18:20:20.841Z,100429.21
2024-01-12T18:22:49.008Z,100426.90
2024-01-12T18:25:18.220Z,100425.59
2024-01-12T18:27:47.107Z,100430.66
2024-01-12T18:30:16.479Z,100429.12
2024-01-12T18:32:45.805Z,100426.83
2024-01-12T18:35:13.917Z,100426.05
2024-01-12T18:37:43.423Z,100421.02
2024-01-12T18:40:11.955Z,100417.20
2024-01-12T18:42:40.884Z,100417.63
2024-01-12T18:45:10.750Z,100415.77
2024-01-12T18:47:40.125Z,100420.38
2024-01-12T18:50:09.957Z,100417.00
2024-01-12T18:52:39.414Z,100411.84
2024-01-12T18:55:08.899Z,100407.30
2024-01-12T18:57:37.098Z,100403.08
2024-01-12T19:00:06.870Z,100407.35
2024-01-12T19:02:36.202Z,100404.39
2024-01-12T19:05:04.652Z,100401.83
2024-01-12T19:07:33.568Z,100400.55
2024-01-12T19:10:02.008Z,100399.42
2024-01-12T19:12:30.114Z,100396.73
2024-01-12T19:14:58.311Z,100391.94
2024-01-12T19:17:26.636Z,100387.52
2024-01-12T19:19:55.324Z,100385.35
2024-01-12T19:22:24.485Z,100384.02
2024-01-12T19:24:53.438Z,100383.99
2024-01-12T19:27:22.820Z,100383.13
2024-01-12T19:29:51.722Z,100385.08
2024-01-12T19:32:21.121Z,100389.17
2024-01-12T19:34:51.648Z,100387.08
2024-01-12T19:37:20.081Z,100390.80
2024-01-12T19:39:48.993Z,100389.30
2024-01-12T19:42:17.307Z,100391.11
2024-01-12T19:44:46.938Z,100389.40
2024-01-12T19:47:15.034Z,100393.61
2024-01-12T19:49:44.018Z,100396.23
2024-01-12T19:52:12.113Z,100399.49
2024-01-12T19:54:40.629Z,100398.48
2024-01-12T19:57:10.164Z,100392.09
2024-01-12T19:59:38.476Z,100391.16
2024-01-12T20:02:06.974Z,100392.85
2024-01-12T20:04:43.836Z,100397.02
2024-01-12T20:07:15.624Z,100399.27
2024-01-12T20:09:44.790Z,100401.64
2024-01-12T20:12:14.048Z,100405.74
2024-01-12T20:14:42.687Z,100409.36
2024-01-12T20:17:12.123Z,100409.91
2024-01-12T20:19:40.660Z,100408.98
2024-01-12T20:22:11.106Z,100409.55
2024-01-12T20:24:40.723Z,100407.95
2024-01-12T20:27:08.863Z,100406.64
2024-01-12T20:29:40.104Z,100411.50
2024-01-12T20:32:08.228Z,100407.55
2024-01-12T20:34:36.477Z,100409.43
2024-01-12T20:37:06.185Z,100409.82
2024-01-12T20:39:34.168Z,100407.30
2024-01-12T20:42:02.865Z,100408.33
2024-01-12T20:44:30.914Z,100412.17
2024-01-12T20:46:59.158Z,100410.86
2024-01-12T20:49:27.310Z,100414.35
2024-01-12T20:51:56.352Z,100413.99
2024-01-12T20:54:24.493Z,100411.58
2024-01-12T20:56:55.098Z,100409.70
2024-01-12T20:59:26.886Z,100416.91
2024-01-12T21:01:56.504Z,100411.45
2024-01-12T21:04:25.762Z,100410.55
2024-01-12T21:06:54.175Z,100415.98
2024-01-12T21:09:23.057Z,100415.66
2024-01-12T21:11:51.972Z,100418.41
2024-01-12T21:14:21.717Z,100418.23
2024-01-12T21:16:49.817Z,100419.69
2024-01-12T21:19:19.088Z,100421.56
2024-01-12T21:21:47.390Z,100417.82
2024-01-12T21:24:16.980Z,100419.27
2024-01-12T21:26:45.093Z,100409.33
2024-01-12T21:29:13.272Z,100403.56
2024-01-12T21:31:41.209Z,100406.61
2024-01-12T21:34:09.509Z,100407.79
2024-01-12T21:36:38.155Z,100401.99
2024-01-12T21:39:10.327Z,100397.79
2024-01-12T21:41:38.893Z,100396.14
2024-01-12T21:44:07.201Z,100388.73
2024-01-12T21:46:35.223Z,100385.17
2024-01-12T21:49:03.703Z,100380.94
2024-01-12T21:51:31.939Z,100381.67
2024-01-12T21:54:00.011Z,100380.31
2024-01-12T21:56:28.020Z,100377.35
2024-01-12T21:58:56.921Z,100376.14
2024-01-12T22:01:24.900Z,100377.59
2024-01-12T22:03:56.206Z,100373.20
2024-01-12T22:06:24.666Z,100368.16
2024-01-12T22:08:53.021Z,100373.61
2024-01-12T22:11:21.329Z,100372.41
2024-01-12T22:13:49.501Z,100368.73
2024-01-12T22:16:20.064Z,100366.70
2024-01-12T22:18:48.192Z,100364.10
2024-01-12T22:21:17.073Z,100358.84
2024-01-12T22:23:46.253Z,100358.01
2024-01-12T22:26:15.141Z,100358.42
2024-01-12T22:28:43.409Z,100361.31
2024-01-12T22:31:11.477Z,100363.31
2024-01-12T22:33:39.578Z,100364.20
2024-01-12T22:36:08.677Z,100370.12
2024-01-12T22:38:36.892Z,100375.59
2024-01-12T22:41:05.277Z,100374.91
2024-01-12T22:43:33.341Z,100375.30
2024-01-12T22:46:02.725Z,100378.79
2024-01-12T22:48:31.152Z,100376.50
2024-01-12T22:50:59.488Z,100376.70
2024-01-12T22:53:28.357Z,100376.23
2024-01-12T22:55:57.227Z,100373.91
2024-01-12T22:58:25.222Z,100377.35
2024-01-12T23:00:54.185Z,100378.74
2024-01-12T23:03:23.085Z,100375.05
2024-01-12T23:05:51.198Z,100372.46
2024-01-12T23:08:19.375Z,100369.92
2024-01-12T23:10:47.597Z,100372.13
2024-01-12T23:13:16.101Z,100373.46
2024-01-12T23:15:44.028Z,100374.10
2024-01-12T23:18:13.191Z,100375.59
2024-01-12T23:20:42.439Z,100378.72
2024-01-12T23:23:10.775Z,100376.55
2024-01-12T23:25:38.947Z,100379.99
2024-01-12T23:28:07.816Z,100384.81
2024-01-12T23:30:37.220Z,100388.71
2024-01-12T23:33:06.495Z,100396.14
2024-01-12T23:35:34.845Z,100399.13
2024-01-12T23:38:03.073Z,100407.55
2024-01-12T23:40:33.468Z,100414.48
2024-01-12T23:43:01.583Z,100418.08
2024-01-12T23:45:31.096Z,100419.00
2024-01-12T23:48:05.134Z,100419.19
2024-01-12T23:50:33.589Z,100420.03
2024-01-12T23:53:01.903Z,100425.32
2024-01-12T23:55:31.186Z,100425.65
2024-01-12T23:57:59.640Z,100431.48
